Time;durP1;ratioP1;P1;durP2;ratioP2;P2;SDS_P1;SDS_P2;PMS_P1;PMS_P2;Temp;Humidity;BMP_temperature;BMP_pressure;BME280_temperature;BME280_humidity;BME280_pressure;Samples;Min_cycle;Max_cycle;Signal;HPM_P1;HPM_P2
2021/03/31 00:02:02;;;;;;;30.92;14.10;;;12.90;44.90;;;;;;5118037;28;20024;-36
2021/03/31 00:04:28;;;;;;;30.83;14.95;;;12.90;45.20;;;;;;5117485;28;20392;-36
2021/03/31 00:06:53;;;;;;;35.50;14.40;;;13.00;44.90;;;;;;5117897;28;20027;-36
2021/03/31 00:09:19;;;;;;;30.70;14.07;;;12.90;45.60;;;;;;5117388;28;20031;-36
2021/03/31 00:11:45;;;;;;;24.80;13.50;;;12.90;45.70;;;;;;5117321;28;20381;-36
2021/03/31 00:14:16;;;;;;;26.25;13.68;;;12.80;44.80;;;;;;5116088;28;20016;-36
2021/03/31 00:16:42;;;;;;;29.40;13.70;;;12.70;45.80;;;;;;5117569;28;20027;-36
2021/03/31 00:19:08;;;;;;;26.10;14.18;;;12.60;46.10;;;;;;5117406;28;20023;-36
2021/03/31 00:21:34;;;;;;;28.52;14.32;;;12.50;46.00;;;;;;5117303;28;20022;-36
2021/03/31 00:23:59;;;;;;;26.85;13.85;;;12.50;46.10;;;;;;5117644;28;20030;-36
2021/03/31 00:26:25;;;;;;;32.22;14.60;;;12.50;45.90;;;;;;5117660;28;20106;-35
2021/03/31 00:28:51;;;;;;;28.95;13.65;;;12.40;46.10;;;;;;5117163;28;20042;-36
2021/03/31 00:31:16;;;;;;;29.90;15.73;;;12.50;46.10;;;;;;5117079;28;20034;-36
2021/03/31 00:33:42;;;;;;;27.23;14.73;;;12.40;46.30;;;;;;5117269;28;20020;-36
2021/03/31 00:36:08;;;;;;;31.67;13.77;;;12.40;46.80;;;;;;5118032;28;20416;-36
2021/03/31 00:38:34;;;;;;;30.33;13.43;;;12.30;46.70;;;;;;5116293;28;20486;-36
2021/03/31 00:41:00;;;;;;;28.27;13.43;;;12.30;47.40;;;;;;5117116;28;20106;-36
2021/03/31 00:43:26;;;;;;;31.05;14.07;;;12.20;47.20;;;;;;5116827;27;20115;-36
2021/03/31 00:45:52;;;;;;;27.30;14.43;;;12.10;47.70;;;;;;5116908;28;20034;-36
2021/03/31 00:48:18;;;;;;;32.08;14.38;;;12.10;47.90;;;;;;5116537;27;20043;-36
2021/03/31 00:50:50;;;;;;;32.90;14.32;;;12.30;47.40;;;;;;5117054;28;20066;-36
2021/03/31 00:53:18;;;;;;;26.52;13.70;;;12.10;48.30;;;;;;5117860;28;20020;-37
2021/03/31 00:55:44;;;;;;;26.15;13.05;;;11.90;48.80;;;;;;5116782;28;20020;-36
2021/03/31 00:58:10;;;;;;;26.15;12.73;;;11.80;49.20;;;;;;5116851;28;20034;-36
2021/03/31 01:00:36;;;;;;;31.05;13.43;;;11.80;49.60;;;;;;5116003;27;20606;-36
2021/03/31 01:03:02;;;;;;;29.02;14.13;;;11.80;49.90;;;;;;5117230;28;20028;-36
2021/03/31 01:05:30;;;;;;;27.17;14.40;;;11.60;50.40;;;;;;5119508;28;20023;-36
2021/03/31 01:07:56;;;;;;;23.45;12.68;;;11.40;51.40;;;;;;5115956;27;20154;-36
2021/03/31 01:10:29;;;;;;;26.27;14.07;;;11.40;51.10;;;;;;5116125;28;20091;-36
2021/03/31 01:13:28;;;;;;;31.77;14.57;;;11.40;51.30;;;;;;5114600;28;20024;-35
2021/03/31 01:16:00;;;;;;;34.03;13.32;;;11.40;51.80;;;;;;5115970;28;20484;-36
2021/03/31 01:18:32;;;;;;;26.33;13.48;;;11.30;51.30;;;;;;5114566;28;20088;-36
2021/03/31 01:21:19;;;;;;;29.40;15.55;;;11.40;51.60;;;;;;5115730;28;20031;-36
2021/03/31 01:24:23;;;;;;;26.77;13.55;;;11.30;52.00;;;;;;5115825;28;20032;-36
2021/03/31 01:26:57;;;;;;;30.25;14.50;;;11.30;51.90;;;;;;5099839;28;20043;-35
2021/03/31 01:29:29;;;;;;;31.92;13.98;;;11.30;51.30;;;;;;5116184;28;20031;-35
2021/03/31 01:32:24;;;;;;;28.90;13.18;;;11.40;51.30;;;;;;5116054;28;20051;-36
2021/03/31 01:34:54;;;;;;;24.77;13.18;;;11.50;50.90;;;;;;5116676;28;20027;-36
2021/03/31 01:37:31;;;;;;;20.70;11.23;;;11.50;50.30;;;;;;5115762;28;20069;-36
2021/03/31 01:39:59;;;;;;;24.92;13.40;;;11.50;50.50;;;;;;5115842;28;20027;-35
2021/03/31 01:42:29;;;;;;;24.35;13.18;;;11.60;50.40;;;;;;5115434;28;20034;-35
2021/03/31 01:45:01;;;;;;;29.50;14.03;;;11.60;50.50;;;;;;5115513;28;20027;-35
2021/03/31 01:47:31;;;;;;;28.00;13.25;;;11.50;51.00;;;;;;5115181;28;20361;-36
2021/03/31 01:49:59;;;;;;;30.25;13.15;;;11.50;50.50;;;;;;5115483;28;20038;-35
2021/03/31 01:52:26;;;;;;;27.67;11.88;;;11.50;50.10;;;;;;5115460;28;20031;-35
2021/03/31 01:54:53;;;;;;;25.58;12.77;;;11.50;51.00;;;;;;5115764;28;20024;-36
2021/03/31 01:57:23;;;;;;;25.13;12.20;;;11.40;51.00;;;;;;5115484;28;20470;-36
2021/03/31 01:59:51;;;;;;;30.85;13.32;;;11.30;51.30;;;;;;5114099;28;20491;-36
2021/03/31 02:02:17;;;;;;;28.15;12.63;;;11.30;50.70;;;;;;5115584;28;20027;-36
2021/03/31 02:04:45;;;;;;;24.90;12.68;;;11.30;50.30;;;;;;5115179;28;20479;-35
2021/03/31 02:07:11;;;;;;;23.20;11.73;;;11.30;50.30;;;;;;5115105;28;20553;-35
2021/03/31 02:09:41;;;;;;;31.90;14.77;;;11.30;51.10;;;;;;5115040;28;20410;-36
2021/03/31 02:12:13;;;;;;;26.60;12.52;;;11.10;51.40;;;;;;5114262;28;20110;-36
2021/03/31 02:14:43;;;;;;;25.90;11.60;;;10.90;52.30;;;;;;5114953;28;20394;-36
2021/03/31 02:17:12;;;;;;;21.90;12.27;;;10.90;52.30;;;;;;5114879;28;20051;-36
2021/03/31 02:19:39;;;;;;;31.95;13.90;;;11.00;52.40;;;;;;5114888;28;20020;-36
2021/03/31 02:22:07;;;;;;;25.23;12.80;;;10.90;53.20;;;;;;5114868;28;20513;-36
2021/03/31 02:24:34;;;;;;;25.45;12.77;;;10.80;53.60;;;;;;5114810;28;20019;-36
2021/03/31 02:27:00;;;;;;;22.35;12.70;;;10.80;53.80;;;;;;5114725;28;20111;-36
2021/03/31 02:29:26;;;;;;;24.17;12.27;;;10.80;54.20;;;;;;5114658;28;20027;-35
2021/03/31 02:31:53;;;;;;;22.80;12.68;;;10.80;54.70;;;;;;5114829;28;20084;-35
2021/03/31 02:34:20;;;;;;;26.15;12.02;;;10.60;55.00;;;;;;5114543;28;20023;-35
2021/03/31 02:36:46;;;;;;;22.70;11.40;;;10.50;55.30;;;;;;5114746;28;20019;-35
2021/03/31 02:39:14;;;;;;;27.63;11.40;;;10.50;54.30;;;;;;5114464;28;20428;-35
2021/03/31 02:41:44;;;;;;;24.77;12.10;;;10.70;54.20;;;;;;5114475;28;20016;-36
2021/03/31 02:44:11;;;;;;;23.65;11.55;;;10.60;53.60;;;;;;5113005;28;20031;-36
2021/03/31 02:46:39;;;;;;;27.48;12.02;;;10.80;53.30;;;;;;5114263;28;20038;-35
2021/03/31 02:49:08;;;;;;;26.92;13.18;;;10.80;53.60;;;;;;5114486;28;20067;-36
2021/03/31 02:51:34;;;;;;;22.25;11.20;;;10.90;53.00;;;;;;5114207;28;20020;-35
2021/03/31 02:54:01;;;;;;;22.38;11.15;;;10.80;53.00;;;;;;5114532;28;20027;-36
2021/03/31 02:56:29;;;;;;;21.75;11.82;;;10.80;53.80;;;;;;5114452;28;20054;-36
2021/03/31 02:58:56;;;;;;;25.73;13.52;;;10.80;52.90;;;;;;5112846;28;20019;-35
2021/03/31 03:01:22;;;;;;;21.80;12.18;;;10.80;53.70;;;;;;5114201;28;20118;-36
2021/03/31 03:03:48;;;;;;;30.02;14.02;;;10.80;53.70;;;;;;5114058;28;20031;-37
2021/03/31 03:06:14;;;;;;;23.10;11.77;;;10.60;53.80;;;;;;5114020;28;20027;-35
2021/03/31 03:08:40;;;;;;;22.65;11.52;;;10.80;53.60;;;;;;5114224;28;20360;-36
2021/03/31 03:11:05;;;;;;;26.55;11.63;;;10.80;53.10;;;;;;5112459;28;20027;-35
2021/03/31 03:13:32;;;;;;;25.38;11.55;;;10.80;53.30;;;;;;5113780;28;20096;-35
2021/03/31 03:16:00;;;;;;;23.27;11.55;;;10.80;53.10;;;;;;5114025;28;20490;-36
2021/03/31 03:18:25;;;;;;;24.45;11.05;;;10.70;54.10;;;;;;5114643;28;20356;-36
2021/03/31 03:20:52;;;;;;;25.40;12.25;;;10.50;54.50;;;;;;5113866;28;20028;-36
2021/03/31 03:23:19;;;;;;;21.90;11.90;;;10.40;55.40;;;;;;5113991;28;20055;-36
2021/03/31 03:25:48;;;;;;;22.13;11.98;;;10.20;55.90;;;;;;5114073;28;20024;-37
2021/03/31 03:28:25;;;;;;;21.33;11.32;;;10.20;56.20;;;;;;5113929;28;20123;-36
2021/03/31 03:30:52;;;;;;;27.17;11.93;;;10.20;56.00;;;;;;5114118;28;20032;-37
2021/03/31 03:33:19;;;;;;;24.13;11.70;;;10.20;56.20;;;;;;5113717;28;20043;-37
2021/03/31 03:35:46;;;;;;;31.73;12.88;;;10.10;56.60;;;;;;5114129;28;20027;-36
2021/03/31 03:38:12;;;;;;;22.10;11.20;;;10.10;57.50;;;;;;5113799;28;20150;-36
2021/03/31 03:40:38;;;;;;;20.92;11.18;;;9.90;58.10;;;;;;5113527;28;20016;-35
2021/03/31 03:43:04;;;;;;;23.52;11.07;;;9.90;58.00;;;;;;5113843;28;20059;-35
2021/03/31 03:45:31;;;;;;;31.27;12.68;;;9.90;57.80;;;;;;5113887;28;20020;-35
2021/03/31 03:47:58;;;;;;;23.23;11.55;;;9.90;57.70;;;;;;5113521;28;20040;-35
2021/03/31 03:50:25;;;;;;;36.15;12.35;;;9.90;57.90;;;;;;5112273;28;20024;-35
2021/03/31 03:52:52;;;;;;;26.08;11.98;;;10.10;57.60;;;;;;5113528;28;20038;-35
2021/03/31 03:55:19;;;;;;;21.88;11.70;;;10.20;56.90;;;;;;5113648;28;20099;-35
2021/03/31 03:57:45;;;;;;;24.00;11.90;;;10.30;56.30;;;;;;5113838;28;20058;-37
2021/03/31 04:00:17;;;;;;;24.35;13.65;;;10.30;56.40;;;;;;5112201;28;20028;-35
2021/03/31 04:02:43;;;;;;;27.55;13.02;;;10.20;56.60;;;;;;5113767;28;20030;-37
2021/03/31 04:05:09;;;;;;;25.77;12.80;;;10.10;57.30;;;;;;5114211;27;20417;-34
2021/03/31 04:07:35;;;;;;;25.83;12.55;;;9.90;57.60;;;;;;5112085;28;20036;-37
2021/03/31 04:10:02;;;;;;;22.13;11.50;;;10.00;57.40;;;;;;5113579;28;20168;-37
2021/03/31 04:12:29;;;;;;;23.90;12.75;;;9.90;57.80;;;;;;5113493;27;20489;-35
2021/03/31 04:14:57;;;;;;;30.08;11.95;;;9.90;58.10;;;;;;5113505;28;20031;-35
2021/03/31 04:17:23;;;;;;;29.83;13.05;;;9.90;58.30;;;;;;5113593;28;20035;-35
2021/03/31 04:19:50;;;;;;;25.42;12.10;;;9.70;59.00;;;;;;5113703;28;20019;-35
2021/03/31 04:22:16;;;;;;;30.63;12.85;;;9.60;59.20;;;;;;5112061;28;20031;-35
2021/03/31 04:24:42;;;;;;;22.55;12.25;;;9.60;58.80;;;;;;5113705;28;20074;-34
2021/03/31 04:27:14;;;;;;;19.70;11.43;;;9.80;59.00;;;;;;5113135;28;20046;-35
2021/03/31 04:29:42;;;;;;;22.25;12.38;;;9.70;58.80;;;;;;5113361;28;20081;-36
2021/03/31 04:32:15;;;;;;;23.25;11.85;;;9.70;59.10;;;;;;5113244;28;20483;-35
2021/03/31 04:34:41;;;;;;;26.50;10.93;;;9.70;59.10;;;;;;5113319;28;20036;-35
2021/03/31 04:37:07;;;;;;;28.02;11.85;;;9.70;59.10;;;;;;5117209;28;20419;-37
2021/03/31 04:39:32;;;;;;;23.95;11.57;;;9.60;59.40;;;;;;5117180;28;20406;-37
2021/03/31 04:41:58;;;;;;;32.03;12.07;;;9.60;59.40;;;;;;5116748;28;20026;-37
2021/03/31 04:44:24;;;;;;;23.55;11.32;;;9.50;59.30;;;;;;5116606;27;20043;-35
2021/03/31 04:46:50;;;;;;;28.35;12.90;;;9.40;59.50;;;;;;5116877;28;20360;-36
2021/03/31 04:49:15;;;;;;;25.70;11.90;;;9.40;59.30;;;;;;5116429;28;20052;-35
2021/03/31 04:51:41;;;;;;;23.80;11.93;;;9.50;59.50;;;;;;5116643;28;20020;-35
2021/03/31 04:54:06;;;;;;;29.95;11.57;;;9.50;59.40;;;;;;5116674;28;20053;-35
2021/03/31 04:56:33;;;;;;;27.27;11.20;;;9.50;59.30;;;;;;5116479;28;20047;-35
2021/03/31 04:58:58;;;;;;;21.98;12.80;;;9.70;59.30;;;;;;5116526;28;20080;-35
2021/03/31 05:01:24;;;;;;;22.98;11.63;;;9.80;58.30;;;;;;5116371;28;20089;-36
2021/03/31 05:03:50;;;;;;;22.58;11.13;;;9.80;58.20;;;;;;5116537;28;20045;-36
2021/03/31 05:06:15;;;;;;;26.65;12.40;;;9.80;57.70;;;;;;5116701;28;20081;-36
2021/03/31 05:08:41;;;;;;;29.88;13.82;;;9.80;57.80;;;;;;5116428;28;20085;-36
2021/03/31 05:11:07;;;;;;;29.10;10.85;;;9.60;58.10;;;;;;5116164;28;20059;-35
2021/03/31 05:13:32;;;;;;;22.77;10.43;;;9.60;58.00;;;;;;5116240;28;20098;-35
2021/03/31 05:15:58;;;;;;;25.70;11.88;;;9.40;59.10;;;;;;5114928;28;20031;-35
2021/03/31 05:18:23;;;;;;;25.20;10.00;;;9.40;58.90;;;;;;5116218;28;20051;-35
2021/03/31 05:20:49;;;;;;;22.98;9.93;;;9.50;58.40;;;;;;5116138;28;20024;-36
2021/03/31 05:23:15;;;;;;;20.40;12.52;;;9.60;58.20;;;;;;5115934;28;20024;-36
2021/03/31 05:25:40;;;;;;;23.95;11.27;;;9.50;58.40;;;;;;5115945;28;20417;-36
2021/03/31 05:28:07;;;;;;;24.08;10.98;;;9.50;58.50;;;;;;5116383;28;20015;-36
2021/03/31 05:30:32;;;;;;;24.85;11.02;;;9.50;58.70;;;;;;5114400;28;20023;-35
2021/03/31 05:32:58;;;;;;;23.75;11.95;;;9.40;59.10;;;;;;5114297;28;20023;-35
2021/03/31 05:35:24;;;;;;;23.80;11.25;;;9.40;59.60;;;;;;5116147;28;20026;-35
2021/03/31 05:37:49;;;;;;;26.38;12.68;;;9.30;59.90;;;;;;5115484;28;20016;-35
2021/03/31 05:40:15;;;;;;;21.75;11.45;;;9.30;59.80;;;;;;5115472;28;20016;-35
2021/03/31 05:42:41;;;;;;;32.08;11.63;;;9.30;59.60;;;;;;5115871;28;20024;-35
2021/03/31 05:45:09;;;;;;;21.58;10.75;;;9.30;59.60;;;;;;5115715;28;20520;-35
2021/03/31 05:47:37;;;;;;;25.92;11.32;;;9.30;59.20;;;;;;5114615;28;20592;-36
2021/03/31 05:50:06;;;;;;;17.25;10.15;;;9.40;59.50;;;;;;5115760;28;20028;-36
2021/03/31 05:52:32;;;;;;;20.85;10.48;;;9.40;59.60;;;;;;5115439;28;20352;-35
2021/03/31 05:55:01;;;;;;;34.58;11.25;;;9.40;59.50;;;;;;5115268;28;20023;-36
2021/03/31 05:57:28;;;;;;;22.67;13.13;;;9.60;59.10;;;;;;5115497;28;20027;-35
2021/03/31 05:59:54;;;;;;;66.32;17.55;;;9.80;58.40;;;;;;5116085;28;20138;-35
2021/03/31 06:02:21;;;;;;;21.75;11.65;;;9.90;57.90;;;;;;5113751;28;20063;-35
2021/03/31 06:04:47;;;;;;;29.55;13.05;;;10.00;57.40;;;;;;5115229;27;20027;-35
2021/03/31 06:07:13;;;;;;;24.45;11.25;;;10.00;57.20;;;;;;5114834;28;20038;-35
2021/03/31 06:10:08;;;;;;;22.95;10.57;;;10.00;57.60;;;;;;5113505;28;20023;-35
2021/03/31 06:12:35;;;;;;;20.90;11.15;;;10.00;57.80;;;;;;5115123;27;20023;-36
2021/03/31 06:15:13;;;;;;;24.05;11.63;;;10.10;58.30;;;;;;5114232;28;20069;-36
2021/03/31 06:17:52;;;;;;;25.50;10.82;;;10.40;56.90;;;;;;5114540;27;20031;-37
2021/03/31 06:20:48;;;;;;;31.55;10.98;;;10.60;56.30;;;;;;5114721;28;20103;-37
2021/03/31 06:26:16;;;;;;;29.63;10.63;;;10.50;57.40;;;;;;5115303;28;20084;-37
2021/03/31 06:28:41;;;;;;;22.83;11.02;;;10.50;57.10;;;;;;5115040;28;20447;-37
2021/03/31 06:31:13;;;;;;;24.58;10.50;;;10.50;57.20;;;;;;5114561;28;20038;-37
2021/03/31 06:33:40;;;;;;;32.10;12.00;;;10.50;57.70;;;;;;5114619;28;20020;-37
2021/03/31 06:36:07;;;;;;;31.65;12.63;;;10.60;57.40;;;;;;5114332;28;20016;-35
2021/03/31 06:38:36;;;;;;;36.55;14.13;;;10.70;57.90;;;;;;5115026;28;20458;-37
2021/03/31 06:41:32;;;;;;;27.35;12.00;;;10.70;59.00;;;;;;5114509;27;20463;-36
2021/03/31 06:44:10;;;;;;;34.50;11.55;;;10.80;58.40;;;;;;5113129;28;20019;-37
2021/03/31 06:49:08;;;;;;;29.27;11.23;;;11.10;57.60;;;;;;5114273;28;20164;-36
2021/03/31 06:51:34;;;;;;;37.78;13.50;;;11.30;57.60;;;;;;5114176;28;20024;-35
2021/03/31 06:54:13;;;;;;;32.35;13.65;;;11.30;56.70;;;;;;5114192;28;20027;-34
2021/03/31 06:56:38;;;;;;;34.42;14.30;;;11.50;55.70;;;;;;5114008;28;20103;-36
2021/03/31 06:59:04;;;;;;;29.80;14.30;;;11.60;56.20;;;;;;5113340;28;20123;-37
2021/03/31 07:01:32;;;;;;;37.78;17.33;;;11.80;56.70;;;;;;5113778;28;20028;-37
2021/03/31 07:04:04;;;;;;;32.65;16.33;;;11.90;55.20;;;;;;5113964;28;20034;-36
2021/03/31 07:06:30;;;;;;;30.60;14.25;;;12.30;53.10;;;;;;5113944;28;20031;-36
2021/03/31 07:08:56;;;;;;;25.13;10.80;;;12.70;51.80;;;;;;5112974;28;20039;-36
2021/03/31 07:11:41;;;;;;;21.48;9.82;;;12.90;46.00;;;;;;5113231;28;20027;-36
2021/03/31 07:14:10;;;;;;;26.80;9.63;;;13.30;45.30;;;;;;5113469;28;20019;-36
2021/03/31 07:16:37;;;;;;;20.33;9.38;;;13.60;43.30;;;;;;5113092;28;20016;-36
2021/03/31 07:19:03;;;;;;;25.05;10.43;;;14.00;40.90;;;;;;5113351;28;20077;-36
2021/03/31 07:21:31;;;;;;;14.45;8.48;;;14.20;40.90;;;;;;5113815;28;20055;-36
2021/03/31 07:23:57;;;;;;;20.48;8.73;;;14.60;39.20;;;;;;5113440;28;20024;-36
2021/03/31 07:26:23;;;;;;;17.02;8.68;;;14.90;38.20;;;;;;5113535;28;20028;-36
2021/03/31 07:28:51;;;;;;;18.70;8.10;;;15.30;37.90;;;;;;5113828;28;20047;-38
2021/03/31 07:31:26;;;;;;;16.70;9.55;;;15.50;36.70;;;;;;5113598;28;20027;-37
2021/03/31 07:34:09;;;;;;;21.42;10.15;;;15.80;36.60;;;;;;5113407;28;20052;-38
2021/03/31 07:36:36;;;;;;;26.50;9.80;;;15.90;36.00;;;;;;5113666;28;20046;-38
2021/03/31 07:39:04;;;;;;;21.42;10.40;;;16.10;36.00;;;;;;5113092;28;20023;-36
2021/03/31 07:41:34;;;;;;;30.77;9.57;;;16.30;35.50;;;;;;5112900;28;20028;-36
2021/03/31 07:44:00;;;;;;;18.43;9.40;;;16.20;35.80;;;;;;5113181;28;20391;-36
2021/03/31 07:46:30;;;;;;;20.42;10.32;;;16.20;36.00;;;;;;5111838;28;20378;-36
2021/03/31 07:48:56;;;;;;;24.63;10.73;;;16.30;35.70;;;;;;5112970;28;20515;-36
2021/03/31 07:51:26;;;;;;;22.38;9.95;;;16.60;35.10;;;;;;5113203;28;20034;-36
2021/03/31 07:53:55;;;;;;;24.40;8.95;;;16.90;34.80;;;;;;5113492;28;20149;-39
2021/03/31 07:56:31;;;;;;;18.83;10.15;;;17.10;34.50;;;;;;5112822;28;20369;-36
2021/03/31 07:59:03;;;;;;;24.63;10.27;;;17.00;34.80;;;;;;5113382;28;20073;-37
2021/03/31 08:01:34;;;;;;;22.42;9.85;;;17.10;34.60;;;;;;5113693;28;20473;-37
2021/03/31 08:04:02;;;;;;;22.92;10.07;;;17.20;34.50;;;;;;5116670;28;20039;-37
2021/03/31 08:06:32;;;;;;;18.15;9.20;;;17.50;33.80;;;;;;5113155;28;20133;-38
2021/03/31 08:08:59;;;;;;;;;;;17.80;33.20;;;;;;5113698;28;20020;-36
2021/03/31 08:11:39;;;;;;;15.65;9.15;;;17.80;33.50;;;;;;5116127;28;20363;-38
2021/03/31 08:14:06;;;;;;;17.63;7.97;;;18.20;32.40;;;;;;5115870;28;20046;-37
2021/03/31 08:16:38;;;;;;;24.33;9.63;;;18.40;32.20;;;;;;5117056;28;20019;-38
2021/03/31 08:19:07;;;;;;;22.52;9.60;;;18.70;31.90;;;;;;5117106;28;20023;-38
2021/03/31 08:21:33;;;;;;;28.35;10.73;;;18.70;31.00;;;;;;5115676;28;20024;-37
2021/03/31 08:24:00;;;;;;;24.23;9.38;;;18.70;30.70;;;;;;5116820;28;20024;-37
2021/03/31 08:26:43;;;;;;;17.42;9.50;;;18.90;30.20;;;;;;5116376;28;20027;-37
2021/03/31 08:29:18;;;;;;;17.65;8.32;;;19.20;30.10;;;;;;5116563;28;20050;-37
2021/03/31 08:31:54;;;;;;;17.63;9.60;;;19.50;29.60;;;;;;5116153;28;20024;-37
2021/03/31 08:34:23;;;;;;;17.80;9.63;;;20.20;28.80;;;;;;5115142;28;20440;-38
2021/03/31 08:36:49;;;;;;;14.02;8.75;;;21.00;27.80;;;;;;5116826;27;20027;-36
2021/03/31 08:39:14;;;;;;;19.98;9.02;;;21.20;27.30;;;;;;5116419;28;20471;-37
2021/03/31 08:41:43;;;;;;;19.85;9.52;;;22.10;26.20;;;;;;5115128;28;20024;-37
2021/03/31 08:44:34;;;;;;;17.73;7.97;;;21.90;26.20;;;;;;5116247;28;20111;-36
2021/03/31 08:47:13;;;;;;;17.27;8.25;;;22.50;25.10;;;;;;5116366;28;20055;-36
2021/03/31 08:49:39;;;;;;;22.35;9.57;;;22.70;24.70;;;;;;5115898;28;20059;-36
2021/03/31 08:52:08;;;;;;;17.42;8.73;;;23.70;23.80;;;;;;5116729;27;20024;-36
2021/03/31 08:54:36;;;;;;;17.45;8.85;;;23.40;23.80;;;;;;5114573;28;20031;-36
2021/03/31 08:57:05;;;;;;;13.43;8.63;;;22.70;24.80;;;;;;5116285;28;20046;-38
2021/03/31 08:59:32;;;;;;;19.23;9.30;;;22.90;24.90;;;;;;5114401;28;20020;-36
2021/03/31 09:01:58;;;;;;;19.55;9.57;;;22.60;25.10;;;;;;5116151;28;20031;-38
2021/03/31 09:04:26;;;;;;;16.50;9.02;;;22.10;25.70;;;;;;5116037;28;20032;-38
2021/03/31 09:06:56;;;;;;;19.05;9.95;;;22.80;24.70;;;;;;5114490;28;20168;-36
2021/03/31 09:09:22;;;;;;;20.83;9.45;;;23.20;24.10;;;;;;5116390;28;20024;-37
2021/03/31 09:11:58;;;;;;;23.02;11.00;;;23.60;24.10;;;;;;5115832;28;20027;-37
2021/03/31 09:14:25;;;;;;;20.50;10.60;;;23.80;23.70;;;;;;5115873;27;20302;-37
2021/03/31 09:17:00;;;;;;;21.90;10.57;;;23.40;24.20;;;;;;5116377;28;20024;-37
2021/03/31 09:19:29;;;;;;;23.35;11.05;;;23.60;24.20;;;;;;5115568;28;20487;-37
2021/03/31 09:21:55;;;;;;;26.90;10.20;;;24.30;23.30;;;;;;5115638;28;20116;-37
2021/03/31 09:24:27;;;;;;;16.67;10.52;;;23.70;24.10;;;;;;5115739;28;20069;-36
2021/03/31 09:27:04;;;;;;;20.75;10.80;;;24.20;23.60;;;;;;5113752;28;20499;-36
2021/03/31 09:29:31;;;;;;;15.73;8.80;;;24.90;22.80;;;;;;5115120;28;20132;-36
2021/03/31 09:31:59;;;;;;;22.58;10.48;;;24.50;23.60;;;;;;5115329;28;20133;-36
2021/03/31 09:34:24;;;;;;;19.98;9.70;;;25.00;22.80;;;;;;5114817;28;20016;-36
2021/03/31 09:37:08;;;;;;;14.75;9.00;;;25.70;21.40;;;;;;5115156;28;20027;-36
2021/03/31 09:39:56;;;;;;;12.80;8.68;;;25.80;21.00;;;;;;5115411;28;20122;-37
2021/03/31 09:42:31;;;;;;;14.23;8.13;;;25.60;21.50;;;;;;5114987;28;20108;-37
2021/03/31 09:44:58;;;;;;;16.85;7.47;;;26.20;21.40;;;;;;5114957;28;20024;-36
2021/03/31 09:47:31;;;;;;;16.55;8.30;;;26.40;20.30;;;;;;5115288;28;20055;-38
2021/03/31 09:49:58;;;;;;;19.13;9.13;;;25.80;21.00;;;;;;5115534;28;20462;-37
2021/03/31 09:52:31;;;;;;;18.25;9.18;;;24.70;22.50;;;;;;5114646;28;20020;-37
2021/03/31 09:55:06;;;;;;;19.17;8.73;;;24.30;23.10;;;;;;5113628;28;20490;-37
2021/03/31 09:57:34;;;;;;;19.23;8.65;;;24.50;22.80;;;;;;5115308;28;20147;-37
2021/03/31 10:00:04;;;;;;;24.50;10.23;;;25.40;22.10;;;;;;5114981;28;20055;-37
2021/03/31 10:02:30;;;;;;;14.60;7.90;;;25.70;22.20;;;;;;5115296;28;20023;-37
2021/03/31 10:05:00;;;;;;;22.38;10.50;;;25.90;21.50;;;;;;5114701;28;20028;-36
2021/03/31 10:07:27;;;;;;;16.50;8.32;;;25.50;21.90;;;;;;5115127;28;20028;-36
2021/03/31 10:09:52;;;;;;;17.85;7.72;;;25.80;21.30;;;;;;5114663;28;20035;-38
2021/03/31 10:12:31;;;;;;;17.75;8.48;;;25.80;21.00;;;;;;5114334;28;20103;-37
2021/03/31 10:15:05;;;;;;;20.63;9.77;;;26.40;20.60;;;;;;5113501;28;20028;-36
2021/03/31 10:17:32;;;;;;;16.42;9.40;;;26.80;19.90;;;;;;5114095;28;20095;-36
2021/03/31 10:20:20;;;;;;;14.85;7.47;;;25.70;21.40;;;;;;5113021;28;20463;-36
2021/03/31 10:22:52;;;;;;;13.02;8.65;;;26.80;19.90;;;;;;5114589;28;20023;-36
2021/03/31 10:25:24;;;;;;;10.05;5.22;;;26.70;20.00;;;;;;5114865;28;20356;-37
2021/03/31 10:27:50;;;;;;;12.95;6.90;;;25.80;20.00;;;;;;5114393;27;20027;-37
2021/03/31 10:30:30;;;;;;;11.02;6.63;;;26.20;20.30;;;;;;5114249;28;20385;-37
2021/03/31 10:32:57;;;;;;;12.00;6.03;;;26.10;20.70;;;;;;5113750;28;20395;-38
2021/03/31 10:35:56;;;;;;;18.83;6.38;;;26.80;20.10;;;;;;5114060;28;20107;-39
2021/03/31 10:38:32;;;;;;;9.45;6.18;;;26.50;20.20;;;;;;5114455;28;20352;-37
2021/03/31 10:46:48;;;;;;;8.70;6.05;;;28.00;19.10;;;;;;5113886;28;20088;-37
2021/03/31 10:51:58;;;;;;;11.38;5.53;;;27.10;19.60;;;;;;5114327;28;20034;-37
2021/03/31 10:54:28;;;;;;;9.90;5.50;;;28.50;18.10;;;;;;5114218;28;20046;-38
2021/03/31 10:57:04;;;;;;;13.63;6.32;;;29.30;17.50;;;;;;5113898;28;20023;-37
2021/03/31 10:59:30;;;;;;;13.55;7.35;;;28.40;18.20;;;;;;5112449;28;20106;-37
2021/03/31 11:01:56;;;;;;;7.75;5.35;;;28.80;17.70;;;;;;5113579;28;20464;-38
2021/03/31 11:04:22;;;;;;;11.65;6.53;;;27.10;19.50;;;;;;5111997;28;20420;-37
2021/03/31 11:06:48;;;;;;;13.70;6.68;;;27.40;18.70;;;;;;5113801;28;20046;-37
2021/03/31 11:09:14;;;;;;;7.90;5.00;;;28.60;18.10;;;;;;5113685;28;20103;-39
2021/03/31 11:11:39;;;;;;;8.60;5.55;;;28.80;17.40;;;;;;5113777;28;20027;-38
2021/03/31 11:14:05;;;;;;;9.35;4.75;;;27.10;18.50;;;;;;5113374;28;20031;-37
2021/03/31 11:16:31;;;;;;;11.40;5.38;;;27.30;18.60;;;;;;5113631;28;20383;-37
2021/03/31 11:19:15;;;;;;;9.45;4.97;;;27.50;18.50;;;;;;5113488;28;20099;-37
2021/03/31 11:27:14;;;;;;;11.90;4.68;;;27.30;18.40;;;;;;5089345;28;20024;-36
2021/03/31 11:29:40;;;;;;;6.32;4.05;;;27.30;18.10;;;;;;5111703;28;20033;-36
2021/03/31 11:32:06;;;;;;;7.20;4.40;;;27.30;18.10;;;;;;5112368;28;20140;-36
2021/03/31 11:34:32;;;;;;;8.05;5.50;;;27.80;17.90;;;;;;5112651;28;20030;-37
2021/03/31 11:36:57;;;;;;;8.10;5.25;;;27.70;18.30;;;;;;5112033;28;20020;-36
2021/03/31 11:39:27;;;;;;;8.93;4.68;;;27.50;18.50;;;;;;5117760;28;20020;-37
2021/03/31 11:41:53;;;;;;;;;;;27.50;18.60;;;;;;5111938;28;20052;-37
2021/03/31 11:44:18;;;;;;;12.00;5.57;;;27.30;18.60;;;;;;5112883;28;20514;-37
2021/03/31 11:46:44;;;;;;;9.43;4.60;;;26.90;19.00;;;;;;5116109;28;20042;-37
2021/03/31 11:49:10;;;;;;;12.70;5.63;;;26.60;19.40;;;;;;5116948;28;20127;-37
2021/03/31 11:51:35;;;;;;;12.10;4.72;;;27.20;18.90;;;;;;5117247;28;20027;-38
2021/03/31 11:54:01;;;;;;;12.18;4.45;;;28.30;17.60;;;;;;5117082;28;20051;-38
2021/03/31 11:56:30;;;;;;;10.90;4.72;;;28.60;17.70;;;;;;5118110;28;20020;-38
2021/03/31 11:58:56;;;;;;;8.27;4.88;;;28.20;18.20;;;;;;5119082;28;20531;-39
2021/03/31 12:01:21;;;;;;;7.68;4.65;;;28.30;18.00;;;;;;5117279;28;20051;-39
2021/03/31 12:03:47;;;;;;;21.23;6.13;;;29.40;17.00;;;;;;5119304;28;20031;-38
2021/03/31 12:06:13;;;;;;;5.68;3.88;;;29.20;16.80;;;;;;5116843;28;20328;-38
2021/03/31 12:08:46;;;;;;;7.78;4.72;;;28.60;16.80;;;;;;5115658;28;20036;-39
2021/03/31 12:11:13;;;;;;;9.02;3.92;;;28.30;17.50;;;;;;5117651;28;20062;-39
2021/03/31 12:13:41;;;;;;;10.32;4.60;;;29.10;16.80;;;;;;5117500;28;20031;-39
2021/03/31 12:16:07;;;;;;;8.23;4.70;;;28.80;17.30;;;;;;5115632;28;20088;-39
2021/03/31 12:18:33;;;;;;;7.15;4.72;;;29.10;17.70;;;;;;5117296;28;20464;-40
2021/03/31 12:20:59;;;;;;;12.05;4.70;;;29.50;16.40;;;;;;5117196;28;20028;-38
2021/03/31 12:23:25;;;;;;;8.77;4.55;;;28.80;17.30;;;;;;5115446;28;20023;-38
2021/03/31 12:25:51;;;;;;;8.57;5.47;;;29.10;17.20;;;;;;5116682;28;20157;-39
2021/03/31 12:28:20;;;;;;;5.93;4.55;;;29.20;16.60;;;;;;5116567;28;20030;-39
2021/03/31 12:30:46;;;;;;;9.90;5.13;;;29.10;17.30;;;;;;5114753;28;20024;-39
2021/03/31 12:33:12;;;;;;;6.85;4.32;;;29.20;16.50;;;;;;5116557;28;20439;-38
2021/03/31 12:35:38;;;;;;;8.32;3.92;;;28.50;17.50;;;;;;5097697;28;20115;-39
2021/03/31 12:38:04;;;;;;;8.75;4.15;;;28.30;17.50;;;;;;5115704;28;20019;-40
2021/03/31 12:40:29;;;;;;;7.72;4.80;;;29.10;16.60;;;;;;5116810;28;20036;-40
2021/03/31 12:42:55;;;;;;;4.07;2.88;;;29.10;16.50;;;;;;5116812;28;20031;-39
2021/03/31 12:45:21;;;;;;;7.18;3.75;;;29.20;16.00;;;;;;5116200;28;20135;-38
2021/03/31 12:47:48;;;;;;;4.18;3.03;;;29.80;15.90;;;;;;5115713;28;20564;-39
2021/03/31 12:50:17;;;;;;;6.70;3.28;;;29.80;15.90;;;;;;5116253;28;20031;-38
2021/03/31 12:55:13;;;;;;;5.43;2.90;;;28.30;17.00;;;;;;5116385;28;20030;-40
2021/03/31 12:57:41;;;;;;;10.00;3.58;;;27.60;17.60;;;;;;5115640;28;20024;-39
2021/03/31 13:00:08;;;;;;;6.47;3.47;;;28.20;16.90;;;;;;5116186;28;20468;-40
2021/03/31 13:02:34;;;;;;;6.25;2.83;;;27.60;17.30;;;;;;5114984;28;20110;-39
2021/03/31 13:05:00;;;;;;;9.27;2.78;;;27.20;18.20;;;;;;5114647;28;20161;-39